sensor_id;sensor_type;location;lat;lon;timestamp;temperature;humidity
69598;SHT31;70000;51.176;-115.568;2024-01-30T00:01:35;12.27;50.33
69598;SHT31;70000;51.176;-115.568;2024-01-30T00:04:05;12.26;50.48
69598;SHT31;70000;51.176;-115.568;2024-01-30T00:06:34;12.26;50.25
69598;SHT31;70000;51.176;-115.568;2024-01-30T00:09:03;12.26;50.15
69598;SHT31;70000;51.176;-115.568;2024-01-30T00:11:32;12.25;50.21
69598;SHT31;70000;51.176;-115.568;2024-01-30T00:14:05;12.22;50.46
69598;SHT31;70000;51.176;-115.568;2024-01-30T00:16:35;12.20;50.02
69598;SHT31;70000;51.176;-115.568;2024-01-30T00:19:03;12.21;50.26
69598;SHT31;70000;51.176;-115.568;2024-01-30T00:21:33;12.19;50.04
69598;SHT31;70000;51.176;-115.568;2024-01-30T00:24:02;12.16;50.22
69598;SHT31;70000;51.176;-115.568;2024-01-30T00:26:32;12.16;50.28
69598;SHT31;70000;51.176;-115.568;2024-01-30T00:29:01;12.15;50.39
69598;SHT31;70000;51.176;-115.568;2024-01-30T00:31:31;12.13;50.48
69598;SHT31;70000;51.176;-115.568;2024-01-30T00:34:00;12.10;50.57
69598;SHT31;70000;51.176;-115.568;2024-01-30T00:36:30;12.07;50.24
69598;SHT31;70000;51.176;-115.568;2024-01-30T00:38:59;12.07;50.71
69598;SHT31;70000;51.176;-115.568;2024-01-30T00:41:29;12.05;50.60
69598;SHT31;70000;51.176;-115.568;2024-01-30T00:43:59;12.06;50.38
69598;SHT31;70000;51.176;-115.568;2024-01-30T00:46:28;12.07;50.58
69598;SHT31;70000;51.176;-115.568;2024-01-30T00:49:00;12.04;50.71
69598;SHT31;70000;51.176;-115.568;2024-01-30T00:51:30;11.99;50.74
69598;SHT31;70000;51.176;-115.568;2024-01-30T00:53:59;11.97;50.69
69598;SHT31;70000;51.176;-115.568;2024-01-30T00:56:28;11.94;50.81
69598;SHT31;70000;51.176;-115.568;2024-01-30T00:58:58;11.92;50.96
69598;SHT31;70000;51.176;-115.568;2024-01-30T01:01:28;11.91;50.76
69598;SHT31;70000;51.176;-115.568;2024-01-30T01:03:57;11.93;50.62
69598;SHT31;70000;51.176;-115.568;2024-01-30T01:06:26;11.95;50.44
69598;SHT31;70000;51.176;-115.568;2024-01-30T01:08:55;11.98;50.66
69598;SHT31;70000;51.176;-115.568;2024-01-30T01:11:27;11.94;50.71
69598;SHT31;70000;51.176;-115.568;2024-01-30T01:13:59;11.88;51.21
69598;SHT31;70000;51.176;-115.568;2024-01-30T01:16:29;11.82;51.27
69598;SHT31;70000;51.176;-115.568;2024-01-30T01:19:04;11.80;51.25
69598;SHT31;70000;51.176;-115.568;2024-01-30T01:21:33;11.79;51.16
69598;SHT31;70000;51.176;-115.568;2024-01-30T01:24:11;11.81;51.07
69598;SHT31;70000;51.176;-115.568;2024-01-30T01:26:41;11.81;51.08
69598;SHT31;70000;51.176;-115.568;2024-01-30T01:29:10;11.83;50.99
69598;SHT31;70000;51.176;-115.568;2024-01-30T01:31:42;11.84;51.18
69598;SHT31;70000;51.176;-115.568;2024-01-30T01:34:11;11.83;51.08
69598;SHT31;70000;51.176;-115.568;2024-01-30T01:36:41;11.78;51.54
69598;SHT31;70000;51.176;-115.568;2024-01-30T01:39:10;11.68;51.88
69598;SHT31;70000;51.176;-115.568;2024-01-30T01:41:39;11.62;51.87
69598;SHT31;70000;51.176;-115.568;2024-01-30T01:44:08;11.64;51.34
69598;SHT31;70000;51.176;-115.568;2024-01-30T01:46:37;11.67;51.48
69598;SHT31;70000;51.176;-115.568;2024-01-30T01:49:06;11.61;52.25
69598;SHT31;70000;51.176;-115.568;2024-01-30T01:51:36;11.47;52.74
69598;SHT31;70000;51.176;-115.568;2024-01-30T01:54:09;11.35;53.02
69598;SHT31;70000;51.176;-115.568;2024-01-30T01:56:42;11.27;53.06
69598;SHT31;70000;51.176;-115.568;2024-01-30T01:59:12;11.20;53.29
69598;SHT31;70000;51.176;-115.568;2024-01-30T02:01:46;11.09;53.68
69598;SHT31;70000;51.176;-115.568;2024-01-30T02:08:14;10.96;53.73
69598;SHT31;70000;51.176;-115.568;2024-01-30T02:10:43;10.88;54.26
69598;SHT31;70000;51.176;-115.568;2024-01-30T02:13:13;10.77;54.58
69598;SHT31;70000;51.176;-115.568;2024-01-30T02:15:43;10.66;54.85
69598;SHT31;70000;51.176;-115.568;2024-01-30T02:18:19;10.57;55.09
69598;SHT31;70000;51.176;-115.568;2024-01-30T02:20:51;10.46;55.43
69598;SHT31;70000;51.176;-115.568;2024-01-30T02:23:29;10.41;55.68
69598;SHT31;70000;51.176;-115.568;2024-01-30T02:26:02;10.35;55.92
69598;SHT31;70000;51.176;-115.568;2024-01-30T02:28:31;10.27;56.16
69598;SHT31;70000;51.176;-115.568;2024-01-30T02:31:00;10.22;56.35
69598;SHT31;70000;51.176;-115.568;2024-01-30T02:33:29;10.11;56.60
69598;SHT31;70000;51.176;-115.568;2024-01-30T02:35:58;10.00;57.00
69598;SHT31;70000;51.176;-115.568;2024-01-30T02:38:28;9.91;57.27
69598;SHT31;70000;51.176;-115.568;2024-01-30T02:40:57;9.82;57.56
69598;SHT31;70000;51.176;-115.568;2024-01-30T02:43:26;9.67;57.91
69598;SHT31;70000;51.176;-115.568;2024-01-30T02:45:55;9.52;58.32
69598;SHT31;70000;51.176;-115.568;2024-01-30T02:48:25;9.37;58.75
69598;SHT31;70000;51.176;-115.568;2024-01-30T02:50:54;9.27;59.05
69598;SHT31;70000;51.176;-115.568;2024-01-30T02:53:25;9.20;59.40
69598;SHT31;70000;51.176;-115.568;2024-01-30T02:55:54;9.15;59.62
69598;SHT31;70000;51.176;-115.568;2024-01-30T02:58:23;9.05;59.82
69598;SHT31;70000;51.176;-115.568;2024-01-30T03:00:52;9.00;60.07
69598;SHT31;70000;51.176;-115.568;2024-01-30T03:03:21;8.95;60.14
69598;SHT31;70000;51.176;-115.568;2024-01-30T03:05:50;8.93;60.28
69598;SHT31;70000;51.176;-115.568;2024-01-30T03:08:19;8.89;60.50
69598;SHT31;70000;51.176;-115.568;2024-01-30T03:10:48;8.80;60.77
69598;SHT31;70000;51.176;-115.568;2024-01-30T03:13:21;8.72;60.96
69598;SHT31;70000;51.176;-115.568;2024-01-30T03:15:52;8.67;61.22
69598;SHT31;70000;51.176;-115.568;2024-01-30T03:18:21;8.60;61.44
69598;SHT31;70000;51.176;-115.568;2024-01-30T03:20:51;8.52;61.67
69598;SHT31;70000;51.176;-115.568;2024-01-30T03:23:19;8.49;61.81
69598;SHT31;70000;51.176;-115.568;2024-01-30T03:25:48;8.44;62.04
69598;SHT31;70000;51.176;-115.568;2024-01-30T03:28:18;8.36;62.30
69598;SHT31;70000;51.176;-115.568;2024-01-30T03:30:49;8.34;62.31
69598;SHT31;70000;51.176;-115.568;2024-01-30T03:33:21;8.31;62.36
69598;SHT31;70000;51.176;-115.568;2024-01-30T03:35:52;8.28;62.44
69598;SHT31;70000;51.176;-115.568;2024-01-30T03:38:21;8.25;62.57
69598;SHT31;70000;51.176;-115.568;2024-01-30T03:40:50;8.22;62.79
69598;SHT31;70000;51.176;-115.568;2024-01-30T03:43:19;8.16;63.09
69598;SHT31;70000;51.176;-115.568;2024-01-30T03:45:48;8.10;63.26
69598;SHT31;70000;51.176;-115.568;2024-01-30T03:48:18;8.05;63.49
69598;SHT31;70000;51.176;-115.568;2024-01-30T03:50:49;7.99;63.70
69598;SHT31;70000;51.176;-115.568;2024-01-30T03:53:17;7.93;63.80
69598;SHT31;70000;51.176;-115.568;2024-01-30T03:55:47;7.91;63.79
69598;SHT31;70000;51.176;-115.568;2024-01-30T03:58:16;7.88;63.97
69598;SHT31;70000;51.176;-115.568;2024-01-30T04:00:45;7.82;64.15
69598;SHT31;70000;51.176;-115.568;2024-01-30T04:03:14;7.78;64.19
69598;SHT31;70000;51.176;-115.568;2024-01-30T04:05:48;7.75;64.19
69598;SHT31;70000;51.176;-115.568;2024-01-30T04:08:19;7.76;64.24
69598;SHT31;70000;51.176;-115.568;2024-01-30T04:10:48;7.72;64.27
69598;SHT31;70000;51.176;-115.568;2024-01-30T04:13:17;7.66;64.35
69598;SHT31;70000;51.176;-115.568;2024-01-30T04:15:47;7.60;64.61
69598;SHT31;70000;51.176;-115.568;2024-01-30T04:18:16;7.54;64.74
69598;SHT31;70000;51.176;-115.568;2024-01-30T04:20:45;7.51;64.89
69598;SHT31;70000;51.176;-115.568;2024-01-30T04:23:14;7.46;64.97
69598;SHT31;70000;51.176;-115.568;2024-01-30T04:25:48;7.39;65.09
69598;SHT31;70000;51.176;-115.568;2024-01-30T04:28:17;7.34;65.29
69598;SHT31;70000;51.176;-115.568;2024-01-30T04:30:47;7.22;65.60
69598;SHT31;70000;51.176;-115.568;2024-01-30T04:33:16;7.17;65.81
69598;SHT31;70000;51.176;-115.568;2024-01-30T04:46:38;6.98;66.30
69598;SHT31;70000;51.176;-115.568;2024-01-30T04:49:11;6.97;66.40
69598;SHT31;70000;51.176;-115.568;2024-01-30T04:51:41;6.95;66.41
69598;SHT31;70000;51.176;-115.568;2024-01-30T04:54:09;6.93;66.52
69598;SHT31;70000;51.176;-115.568;2024-01-30T04:56:38;6.89;66.70
69598;SHT31;70000;51.176;-115.568;2024-01-30T05:11:58;6.53;67.84
69598;SHT31;70000;51.176;-115.568;2024-01-30T05:14:27;6.49;67.91
69598;SHT31;70000;51.176;-115.568;2024-01-30T05:16:59;6.49;68.08
69598;SHT31;70000;51.176;-115.568;2024-01-30T05:19:30;6.49;68.27
69598;SHT31;70000;51.176;-115.568;2024-01-30T05:21:59;6.50;68.31
69598;SHT31;70000;51.176;-115.568;2024-01-30T05:24:33;6.50;68.28
69598;SHT31;70000;51.176;-115.568;2024-01-30T05:27:05;6.49;68.34
69598;SHT31;70000;51.176;-115.568;2024-01-30T05:29:34;6.48;68.42
69598;SHT31;70000;51.176;-115.568;2024-01-30T05:32:03;6.44;68.57
69598;SHT31;70000;51.176;-115.568;2024-01-30T05:34:33;6.44;68.60
69598;SHT31;70000;51.176;-115.568;2024-01-30T05:37:03;6.48;68.65
69598;SHT31;70000;51.176;-115.568;2024-01-30T05:39:33;6.50;68.50
69598;SHT31;70000;51.176;-115.568;2024-01-30T05:42:03;6.53;68.52
69598;SHT31;70000;51.176;-115.568;2024-01-30T05:44:32;6.57;68.39
69598;SHT31;70000;51.176;-115.568;2024-01-30T05:47:01;6.59;68.40
69598;SHT31;70000;51.176;-115.568;2024-01-30T05:49:30;6.57;68.40
69598;SHT31;70000;51.176;-115.568;2024-01-30T05:52:01;6.53;68.49
69598;SHT31;70000;51.176;-115.568;2024-01-30T05:54:32;6.52;68.44
69598;SHT31;70000;51.176;-115.568;2024-01-30T05:57:01;6.50;68.45
69598;SHT31;70000;51.176;-115.568;2024-01-30T05:59:30;6.44;68.67
69598;SHT31;70000;51.176;-115.568;2024-01-30T06:02:02;6.38;68.80
69598;SHT31;70000;51.176;-115.568;2024-01-30T06:04:31;6.34;68.83
69598;SHT31;70000;51.176;-115.568;2024-01-30T06:07:01;6.32;69.00
69598;SHT31;70000;51.176;-115.568;2024-01-30T06:09:30;6.32;69.08
69598;SHT31;70000;51.176;-115.568;2024-01-30T06:12:00;6.32;69.10
69598;SHT31;70000;51.176;-115.568;2024-01-30T06:14:29;6.35;69.11
69598;SHT31;70000;51.176;-115.568;2024-01-30T06:29:43;6.28;69.31
69598;SHT31;70000;51.176;-115.568;2024-01-30T06:32:28;6.23;69.43
69598;SHT31;70000;51.176;-115.568;2024-01-30T06:35:05;6.23;69.43
69598;SHT31;70000;51.176;-115.568;2024-01-30T06:37:34;6.23;69.42
69598;SHT31;70000;51.176;-115.568;2024-01-30T06:40:03;6.21;69.50
69598;SHT31;70000;51.176;-115.568;2024-01-30T06:42:33;6.16;69.72
69598;SHT31;70000;51.176;-115.568;2024-01-30T06:45:02;6.09;69.96
69598;SHT31;70000;51.176;-115.568;2024-01-30T06:47:31;6.05;70.11
69598;SHT31;70000;51.176;-115.568;2024-01-30T06:50:00;6.06;70.19
69598;SHT31;70000;51.176;-115.568;2024-01-30T06:52:31;6.06;70.21
69598;SHT31;70000;51.176;-115.568;2024-01-30T06:55:00;6.11;70.23
69598;SHT31;70000;51.176;-115.568;2024-01-30T06:57:29;6.25;69.96
69598;SHT31;70000;51.176;-115.568;2024-01-30T07:00:00;6.36;69.72
69598;SHT31;70000;51.176;-115.568;2024-01-30T07:02:30;6.40;69.52
69598;SHT31;70000;51.176;-115.568;2024-01-30T07:04:59;6.45;69.46
69598;SHT31;70000;51.176;-115.568;2024-01-30T07:07:29;6.53;69.30
69598;SHT31;70000;51.176;-115.568;2024-01-30T07:09:58;6.64;69.02
69598;SHT31;70000;51.176;-115.568;2024-01-30T07:12:27;6.72;68.70
69598;SHT31;70000;51.176;-115.568;2024-01-30T07:14:59;6.75;68.59
69598;SHT31;70000;51.176;-115.568;2024-01-30T07:17:29;6.77;68.56
69598;SHT31;70000;51.176;-115.568;2024-01-30T07:19:58;6.82;68.43
69598;SHT31;70000;51.176;-115.568;2024-01-30T07:22:27;6.90;68.19
69598;SHT31;70000;51.176;-115.568;2024-01-30T07:24:56;6.96;68.02
69598;SHT31;70000;51.176;-115.568;2024-01-30T07:27:25;6.99;67.91
69598;SHT31;70000;51.176;-115.568;2024-01-30T07:29:54;7.03;67.78
69598;SHT31;70000;51.176;-115.568;2024-01-30T07:32:23;7.06;67.62
69598;SHT31;70000;51.176;-115.568;2024-01-30T07:34:52;7.09;67.53
69598;SHT31;70000;51.176;-115.568;2024-01-30T07:37:34;7.13;67.41
69598;SHT31;70000;51.176;-115.568;2024-01-30T07:40:03;7.14;67.32
69598;SHT31;70000;51.176;-115.568;2024-01-30T07:42:34;7.15;67.30
69598;SHT31;70000;51.176;-115.568;2024-01-30T07:45:03;7.14;67.30
69598;SHT31;70000;51.176;-115.568;2024-01-30T07:47:32;7.03;67.43
69598;SHT31;70000;51.176;-115.568;2024-01-30T07:50:01;6.97;67.57
69598;SHT31;70000;51.176;-115.568;2024-01-30T07:52:31;6.92;67.67
69598;SHT31;70000;51.176;-115.568;2024-01-30T07:55:00;6.80;67.86
69598;SHT31;70000;51.176;-115.568;2024-01-30T07:57:31;6.72;68.09
69598;SHT31;70000;51.176;-115.568;2024-01-30T08:00:00;6.63;68.24
69598;SHT31;70000;51.176;-115.568;2024-01-30T08:02:34;6.51;68.44
69598;SHT31;70000;51.176;-115.568;2024-01-30T08:09:21;6.26;69.11
69598;SHT31;70000;51.176;-115.568;2024-01-30T08:11:50;6.19;69.24
69598;SHT31;70000;51.176;-115.568;2024-01-30T08:14:19;6.14;69.34
69598;SHT31;70000;51.176;-115.568;2024-01-30T08:16:48;6.09;69.47
69598;SHT31;70000;51.176;-115.568;2024-01-30T08:19:17;6.07;69.55
69598;SHT31;70000;51.176;-115.568;2024-01-30T08:21:47;6.03;69.71
69598;SHT31;70000;51.176;-115.568;2024-01-30T08:24:16;6.01;69.72
69598;SHT31;70000;51.176;-115.568;2024-01-30T08:26:45;6.01;69.71
69598;SHT31;70000;51.176;-115.568;2024-01-30T08:29:16;6.01;69.85
69598;SHT31;70000;51.176;-115.568;2024-01-30T08:31:45;6.03;69.97
69598;SHT31;70000;51.176;-115.568;2024-01-30T08:34:14;6.08;69.83
69598;SHT31;70000;51.176;-115.568;2024-01-30T08:36:43;6.17;69.69
69598;SHT31;70000;51.176;-115.568;2024-01-30T08:44:39;6.69;68.56
69598;SHT31;70000;51.176;-115.568;2024-01-30T08:47:08;6.78;68.32
69598;SHT31;70000;51.176;-115.568;2024-01-30T08:49:37;6.82;68.14
69598;SHT31;70000;51.176;-115.568;2024-01-30T08:52:07;6.93;67.85
69598;SHT31;70000;51.176;-115.568;2024-01-30T08:54:36;7.06;67.53
69598;SHT31;70000;51.176;-115.568;2024-01-30T08:57:08;7.13;67.30
69598;SHT31;70000;51.176;-115.568;2024-01-30T08:59:37;7.16;67.20
69598;SHT31;70000;51.176;-115.568;2024-01-30T09:02:06;7.19;67.08
69598;SHT31;70000;51.176;-115.568;2024-01-30T09:04:39;7.22;67.01
69598;SHT31;70000;51.176;-115.568;2024-01-30T09:07:09;7.23;66.95
69598;SHT31;70000;51.176;-115.568;2024-01-30T09:09:39;7.24;66.84
69598;SHT31;70000;51.176;-115.568;2024-01-30T09:20:36;7.14;67.01
69598;SHT31;70000;51.176;-115.568;2024-01-30T09:23:07;7.11;67.01
69598;SHT31;70000;51.176;-115.568;2024-01-30T09:25:36;7.13;66.91
69598;SHT31;70000;51.176;-115.568;2024-01-30T09:28:05;7.16;66.84
69598;SHT31;70000;51.176;-115.568;2024-01-30T09:30:35;7.16;66.93
69598;SHT31;70000;51.176;-115.568;2024-01-30T09:33:04;7.11;67.00
69598;SHT31;70000;51.176;-115.568;2024-01-30T09:35:35;7.06;67.04
69598;SHT31;70000;51.176;-115.568;2024-01-30T09:38:05;6.98;67.23
69598;SHT31;70000;51.176;-115.568;2024-01-30T09:40:36;6.93;67.37
69598;SHT31;70000;51.176;-115.568;2024-01-30T09:43:05;6.89;67.46
69598;SHT31;70000;51.176;-115.568;2024-01-30T09:45:34;6.82;67.58
69598;SHT31;70000;51.176;-115.568;2024-01-30T09:48:04;6.81;67.60
69598;SHT31;70000;51.176;-115.568;2024-01-30T09:50:34;6.84;67.52
69598;SHT31;70000;51.176;-115.568;2024-01-30T09:53:04;6.84;67.60
69598;SHT31;70000;51.176;-115.568;2024-01-30T09:55:36;6.80;67.68
69598;SHT31;70000;51.176;-115.568;2024-01-30T09:58:08;6.77;67.70
69598;SHT31;70000;51.176;-115.568;2024-01-30T10:00:37;6.74;67.62
69598;SHT31;70000;51.176;-115.568;2024-01-30T10:03:09;6.75;67.70
69598;SHT31;70000;51.176;-115.568;2024-01-30T10:05:38;6.75;67.67
69598;SHT31;70000;51.176;-115.568;2024-01-30T10:08:13;6.78;67.58
69598;SHT31;70000;51.176;-115.568;2024-01-30T10:10:49;6.83;67.45
69598;SHT31;70000;51.176;-115.568;2024-01-30T10:13:18;6.88;67.40
69598;SHT31;70000;51.176;-115.568;2024-01-30T10:15:48;6.87;67.39
69598;SHT31;70000;51.176;-115.568;2024-01-30T10:18:18;6.85;67.41
69598;SHT31;70000;51.176;-115.568;2024-01-30T10:20:47;6.86;67.45
69598;SHT31;70000;51.176;-115.568;2024-01-30T10:23:16;6.86;67.36
69598;SHT31;70000;51.176;-115.568;2024-01-30T10:25:47;6.87;67.29
69598;SHT31;70000;51.176;-115.568;2024-01-30T10:28:16;6.88;67.27
69598;SHT31;70000;51.176;-115.568;2024-01-30T10:30:46;6.88;67.22
69598;SHT31;70000;51.176;-115.568;2024-01-30T10:33:43;6.87;67.29
69598;SHT31;70000;51.176;-115.568;2024-01-30T10:36:16;6.84;67.29
69598;SHT31;70000;51.176;-115.568;2024-01-30T10:39:23;6.81;67.31
69598;SHT31;70000;51.176;-115.568;2024-01-30T10:42:01;6.81;67.35
69598;SHT31;70000;51.176;-115.568;2024-01-30T10:44:36;6.83;67.34
69598;SHT31;70000;51.176;-115.568;2024-01-30T10:47:36;6.83;67.28
69598;SHT31;70000;51.176;-115.568;2024-01-30T10:54:31;6.85;67.19
69598;SHT31;70000;51.176;-115.568;2024-01-30T10:57:04;6.89;67.12
69598;SHT31;70000;51.176;-115.568;2024-01-30T10:59:33;6.88;67.10
69598;SHT31;70000;51.176;-115.568;2024-01-30T11:02:04;6.87;67.09
69598;SHT31;70000;51.176;-115.568;2024-01-30T11:04:37;6.89;67.02
69598;SHT31;70000;51.176;-115.568;2024-01-30T11:07:16;6.95;66.79
69598;SHT31;70000;51.176;-115.568;2024-01-30T11:09:48;7.02;66.59
69598;SHT31;70000;51.176;-115.568;2024-01-30T11:12:31;7.08;66.50
69598;SHT31;70000;51.176;-115.568;2024-01-30T11:15:09;7.11;66.35
69598;SHT31;70000;51.176;-115.568;2024-01-30T11:20:30;7.24;66.00
69598;SHT31;70000;51.176;-115.568;2024-01-30T11:22:59;7.37;65.62
69598;SHT31;70000;51.176;-115.568;2024-01-30T11:25:35;7.49;65.32
69598;SHT31;70000;51.176;-115.568;2024-01-30T11:28:04;7.57;65.20
69598;SHT31;70000;51.176;-115.568;2024-01-30T11:30:40;7.64;65.01
69598;SHT31;70000;51.176;-115.568;2024-01-30T11:33:11;7.71;64.79
69598;SHT31;70000;51.176;-115.568;2024-01-30T11:36:00;7.79;64.69
69598;SHT31;70000;51.176;-115.568;2024-01-30T11:38:30;7.88;63.99
69598;SHT31;70000;51.176;-115.568;2024-01-30T11:40:59;8.10;63.40
69598;SHT31;70000;51.176;-115.568;2024-01-30T11:43:30;8.26;62.96
69598;SHT31;70000;51.176;-115.568;2024-01-30T11:46:01;8.43;62.47
69598;SHT31;70000;51.176;-115.568;2024-01-30T11:48:30;8.58;62.11
69598;SHT31;70000;51.176;-115.568;2024-01-30T11:51:02;8.70;61.87
69598;SHT31;70000;51.176;-115.568;2024-01-30T11:53:31;8.77;61.69
69598;SHT31;70000;51.176;-115.568;2024-01-30T11:56:00;8.85;61.77
69598;SHT31;70000;51.176;-115.568;2024-01-30T11:58:31;8.89;61.81
69598;SHT31;70000;51.176;-115.568;2024-01-30T12:01:03;8.92;61.81
69598;SHT31;70000;51.176;-115.568;2024-01-30T12:03:33;8.96;62.62
69598;SHT31;70000;51.176;-115.568;2024-01-30T12:06:02;9.02;62.83
69598;SHT31;70000;51.176;-115.568;2024-01-30T12:08:34;9.08;61.96
69598;SHT31;70000;51.176;-115.568;2024-01-30T12:11:03;9.16;61.39
69598;SHT31;70000;51.176;-115.568;2024-01-30T12:13:35;9.26;61.27
69598;SHT31;70000;51.176;-115.568;2024-01-30T12:16:40;9.37;61.13
69598;SHT31;70000;51.176;-115.568;2024-01-30T12:19:09;9.41;60.86
69598;SHT31;70000;51.176;-115.568;2024-01-30T12:21:38;9.50;60.73
69598;SHT31;70000;51.176;-115.568;2024-01-30T12:24:06;9.56;60.36
69598;SHT31;70000;51.176;-115.568;2024-01-30T12:26:34;9.63;60.12
69598;SHT31;70000;51.176;-115.568;2024-01-30T12:29:03;9.67;59.98
69598;SHT31;70000;51.176;-115.568;2024-01-30T12:31:32;9.75;59.62
69598;SHT31;70000;51.176;-115.568;2024-01-30T12:34:01;9.84;59.17
69598;SHT31;70000;51.176;-115.568;2024-01-30T12:36:30;9.95;58.94
69598;SHT31;70000;51.176;-115.568;2024-01-30T12:38:58;10.02;58.76
69598;SHT31;70000;51.176;-115.568;2024-01-30T12:41:28;10.11;58.55
69598;SHT31;70000;51.176;-115.568;2024-01-30T12:43:57;10.17;58.35
69598;SHT31;70000;51.176;-115.568;2024-01-30T12:46:29;10.26;58.38
69598;SHT31;70000;51.176;-115.568;2024-01-30T12:48:57;10.26;58.44
69598;SHT31;70000;51.176;-115.568;2024-01-30T12:51:26;10.30;58.19
69598;SHT31;70000;51.176;-115.568;2024-01-30T12:53:54;10.38;58.18
69598;SHT31;70000;51.176;-115.568;2024-01-30T12:56:23;10.44;58.36
69598;SHT31;70000;51.176;-115.568;2024-01-30T12:58:52;10.45;58.21
69598;SHT31;70000;51.176;-115.568;2024-01-30T13:01:21;10.46;58.34
69598;SHT31;70000;51.176;-115.568;2024-01-30T13:03:50;10.46;58.45
69598;SHT31;70000;51.176;-115.568;2024-01-30T13:06:20;10.45;58.61
69598;SHT31;70000;51.176;-115.568;2024-01-30T13:08:49;10.44;58.63
69598;SHT31;70000;51.176;-115.568;2024-01-30T13:11:17;10.41;58.59
69598;SHT31;70000;51.176;-115.568;2024-01-30T13:13:47;10.37;58.84
69598;SHT31;70000;51.176;-115.568;2024-01-30T13:16:16;10.33;59.10
69598;SHT31;70000;51.176;-115.568;2024-01-30T13:18:45;10.27;59.17
69598;SHT31;70000;51.176;-115.568;2024-01-30T13:21:13;10.23;59.88
69598;SHT31;70000;51.176;-115.568;2024-01-30T13:23:44;10.16;59.83
69598;SHT31;70000;51.176;-115.568;2024-01-30T13:32:59;9.83;62.13
69598;SHT31;70000;51.176;-115.568;2024-01-30T13:35:30;9.72;62.41
69598;SHT31;70000;51.176;-115.568;2024-01-30T13:37:59;9.57;63.46
69598;SHT31;70000;51.176;-115.568;2024-01-30T13:40:28;9.49;63.86
69598;SHT31;70000;51.176;-115.568;2024-01-30T13:48:23;9.48;61.68
69598;SHT31;70000;51.176;-115.568;2024-01-30T13:50:52;9.51;61.37
69598;SHT31;70000;51.176;-115.568;2024-01-30T13:53:22;9.56;60.62
69598;SHT31;70000;51.176;-115.568;2024-01-30T13:55:51;9.61;60.21
69598;SHT31;70000;51.176;-115.568;2024-01-30T13:58:20;9.65;59.19
69598;SHT31;70000;51.176;-115.568;2024-01-30T14:00:49;9.73;58.64
69598;SHT31;70000;51.176;-115.568;2024-01-30T14:03:19;9.80;57.93
69598;SHT31;70000;51.176;-115.568;2024-01-30T14:05:48;9.86;56.96
69598;SHT31;70000;51.176;-115.568;2024-01-30T14:08:20;9.96;56.50
69598;SHT31;70000;51.176;-115.568;2024-01-30T14:10:52;10.04;55.12
69598;SHT31;70000;51.176;-115.568;2024-01-30T14:24:15;10.43;52.53
69598;SHT31;70000;51.176;-115.568;2024-01-30T14:26:43;10.47;52.45
69598;SHT31;70000;51.176;-115.568;2024-01-30T14:29:12;10.47;52.47
69598;SHT31;70000;51.176;-115.568;2024-01-30T14:31:41;10.49;51.84
69598;SHT31;70000;51.176;-115.568;2024-01-30T14:34:13;10.54;51.06
69598;SHT31;70000;51.176;-115.568;2024-01-30T14:36:52;10.64;50.63
69598;SHT31;70000;51.176;-115.568;2024-01-30T14:43:45;10.68;50.69
69598;SHT31;70000;51.176;-115.568;2024-01-30T14:46:21;10.67;50.65
69598;SHT31;70000;51.176;-115.568;2024-01-30T14:48:57;10.66;50.56
69598;SHT31;70000;51.176;-115.568;2024-01-30T14:51:28;10.68;50.24
69598;SHT31;70000;51.176;-115.568;2024-01-30T14:57:10;10.67;49.98
69598;SHT31;70000;51.176;-115.568;2024-01-30T15:00:21;10.67;49.78
69598;SHT31;70000;51.176;-115.568;2024-01-30T15:02:52;10.67;49.29
69598;SHT31;70000;51.176;-115.568;2024-01-30T15:05:21;10.69;49.15
69598;SHT31;70000;51.176;-115.568;2024-01-30T15:07:50;10.71;48.87
69598;SHT31;70000;51.176;-115.568;2024-01-30T15:10:21;10.72;48.88
69598;SHT31;70000;51.176;-115.568;2024-01-30T15:12:51;10.73;48.66
69598;SHT31;70000;51.176;-115.568;2024-01-30T15:15:21;10.73;48.46
69598;SHT31;70000;51.176;-115.568;2024-01-30T15:17:53;10.75;47.91
69598;SHT31;70000;51.176;-115.568;2024-01-30T15:20:22;10.77;47.64
69598;SHT31;70000;51.176;-115.568;2024-01-30T15:22:53;10.78;47.06
69598;SHT31;70000;51.176;-115.568;2024-01-30T15:25:21;10.82;46.98
69598;SHT31;70000;51.176;-115.568;2024-01-30T15:27:50;10.83;46.79
69598;SHT31;70000;51.176;-115.568;2024-01-30T15:30:19;10.83;46.59
69598;SHT31;70000;51.176;-115.568;2024-01-30T15:32:49;10.84;46.73
69598;SHT31;70000;51.176;-115.568;2024-01-30T15:35:18;10.84;46.57
69598;SHT31;70000;51.176;-115.568;2024-01-30T15:37:48;10.85;46.41
69598;SHT31;70000;51.176;-115.568;2024-01-30T15:40:17;10.84;46.77
69598;SHT31;70000;51.176;-115.568;2024-01-30T15:42:47;10.84;46.09
69598;SHT31;70000;51.176;-115.568;2024-01-30T15:45:16;10.85;45.97
69598;SHT31;70000;51.176;-115.568;2024-01-30T15:47:45;10.83;45.73
69598;SHT31;70000;51.176;-115.568;2024-01-30T15:50:14;10.85;45.73
69598;SHT31;70000;51.176;-115.568;2024-01-30T15:52:43;10.84;45.84
69598;SHT31;70000;51.176;-115.568;2024-01-30T15:55:12;10.83;45.23
69598;SHT31;70000;51.176;-115.568;2024-01-30T15:57:42;10.83;44.83
69598;SHT31;70000;51.176;-115.568;2024-01-30T16:00:12;10.85;44.82
69598;SHT31;70000;51.176;-115.568;2024-01-30T16:02:42;10.86;44.68
69598;SHT31;70000;51.176;-115.568;2024-01-30T16:05:11;10.85;44.84
69598;SHT31;70000;51.176;-115.568;2024-01-30T16:07:41;10.82;45.16
69598;SHT31;70000;51.176;-115.568;2024-01-30T16:10:11;10.81;45.08
69598;SHT31;70000;51.176;-115.568;2024-01-30T16:12:43;10.83;45.18
69598;SHT31;70000;51.176;-115.568;2024-01-30T16:15:14;10.82;44.53
69598;SHT31;70000;51.176;-115.568;2024-01-30T16:17:43;10.85;44.50
69598;SHT31;70000;51.176;-115.568;2024-01-30T16:20:13;10.83;44.42
69598;SHT31;70000;51.176;-115.568;2024-01-30T16:22:45;10.82;44.50
69598;SHT31;70000;51.176;-115.568;2024-01-30T16:25:17;10.82;44.23
69598;SHT31;70000;51.176;-115.568;2024-01-30T16:34:13;10.83;44.25
69598;SHT31;70000;51.176;-115.568;2024-01-30T16:36:42;10.83;44.49
69598;SHT31;70000;51.176;-115.568;2024-01-30T16:39:13;10.83;44.11
69598;SHT31;70000;51.176;-115.568;2024-01-30T16:41:42;10.85;43.89
69598;SHT31;70000;51.176;-115.568;2024-01-30T16:44:11;10.87;43.49
69598;SHT31;70000;51.176;-115.568;2024-01-30T16:46:41;10.90;43.34
69598;SHT31;70000;51.176;-115.568;2024-01-30T16:49:10;10.90;43.39
69598;SHT31;70000;51.176;-115.568;2024-01-30T16:51:39;10.93;43.09
69598;SHT31;70000;51.176;-115.568;2024-01-30T16:54:08;10.95;43.25
69598;SHT31;70000;51.176;-115.568;2024-01-30T16:56:38;10.97;43.20
69598;SHT31;70000;51.176;-115.568;2024-01-30T16:59:08;10.95;43.28
69598;SHT31;70000;51.176;-115.568;2024-01-30T17:01:36;10.94;42.91